Latest Weather Observations for Mortlake

IDV60801

Issued at 10:02 pm EST Thursday 30 July 2015 (issued every 30 minutes, with the page automatically refreshed every 10 minutes)

About weather observations | Map of weather stations | Latest weather observations for VIC | Other Formats
Station Details ID: 090176 Name: MORTLAKE RACECOURSE Lat: -38.07 Lon: 142.77 Height: 130.0 m
Data from the previous 72 hours. | See also: Recent months at Mortlake
Date/Time
EST
Temp
°C
App
Temp
°C
Dew
Point
Rel
Hum
%
Delta-T
°C
Wind Press
QNH
hPa
Press
MSL
hPa
Rain
since 9 am
mm
Dir
 
Spd
km/h
Gust
km/h
Spd
kts
Gust
kts
30/10:00pm 5.5 2.6 4.8 95 0.3 WNW 9 13 5 7 1018.0 1018.2 3.0
30/09:30pm 7.1 3.6 5.4 89 0.8 WSW 13 19 7 10 1017.5 1017.7 3.0
30/09:00pm 7.6 3.3 7.2 97 0.2 W 19 32 10 17 1017.3 1017.5 3.0
30/08:30pm 7.7 4.3 7.6 99 0.0 W 15 22 8 12 1016.6 1016.8 3.0
30/08:00pm 7.6 3.7 7.2 97 0.2 WNW 17 22 9 12 1016.2 1016.4 2.8
30/07:30pm 7.9 4.0 7.3 96 0.3 W 17 26 9 14 1015.8 1016.0 2.8
30/07:00pm 8.3 3.3 8.2 99 0.0 WSW 24 35 13 19 1015.2 1015.4 2.8
30/06:30pm 9.0 2.1 8.9 99 0.0 W 35 54 19 29 1014.5 1014.7 2.8
30/06:21pm 9.2 3.7 9.1 99 0.0 WNW 28 54 15 29 1014.0 1014.2 2.4
30/06:00pm 9.4 3.2 9.3 99 0.0 NW 32 44 17 24 1012.8 1013.1 1.4
30/05:30pm 9.5 3.4 8.3 92 0.6 NNW 30 43 16 23 1011.8 1012.0 1.0
30/05:00pm 9.4 2.8 7.8 90 0.8 NNW 32 44 17 24 1011.2 1011.4 1.0
30/04:36pm 9.3 2.5 7.9 91 0.7 NNW 33 52 18 28 1011.5 1011.7 1.0
30/04:30pm 9.4 2.2 7.8 90 0.8 NNW 35 52 19 28 1011.6 1011.8 1.0
30/04:27pm 9.4 2.8 7.8 90 0.8 NNW 32 52 17 28 1011.6 1011.8 1.0
30/04:00pm 9.5 3.4 8.1 91 0.7 NW 30 37 16 20 1011.6 1011.8 1.0
30/03:30pm 8.7 4.0 7.8 94 0.4 NNW 22 30 12 16 1011.7 1011.9 1.0
30/03:00pm 10.1 3.3 7.0 81 1.5 NNW 32 41 17 22 1011.4 1011.6 0.0
30/02:30pm 10.1 3.6 6.3 77 1.8 N 30 41 16 22 1011.4 1011.6 0.0
30/02:00pm 9.1 3.0 6.7 85 1.1 N 28 39 15 21 1012.2 1012.4 0.0
30/01:30pm 9.3 2.2 6.4 82 1.4 N 33 48 18 26 1012.5 1012.8 0.0
30/01:00pm 10.1 3.5 6.1 76 1.9 N 30 44 16 24 1012.9 1013.2 0.0
30/12:30pm 9.8 2.8 6.0 77 1.8 NNW 32 43 17 23 1012.9 1013.2 0.0
30/12:11pm 10.5 3.9 5.9 73 2.1 N 30 50 16 27 1013.4 1013.7 0.0
30/12:00pm 10.0 4.9 5.8 75 1.9 N 22 33 12 18 1014.0 1014.2 0.0
30/11:30am 9.0 2.3 5.4 78 1.6 N 30 41 16 22 1014.7 1014.9 0.0
30/11:00am 9.3 3.3 5.3 76 1.8 N 26 39 14 21 1015.3 1015.5 0.0
30/10:30am 7.9 1.8 5.0 82 1.3 N 26 33 14 18 1015.9 1016.1 0.0
30/10:00am 7.1 1.4 4.8 85 1.0 N 24 33 13 18 1016.7 1016.9 0.0
30/09:30am 6.9 1.5 4.4 84 1.1 N 22 32 12 17 1017.1 1017.3 0.0
30/09:00am 6.9 1.5 4.4 84 1.1 N 22 30 12 16 1017.8 1018.0 0.0
30/08:30am 6.9 1.1 4.2 83 1.2 N 24 33 13 18 1017.6 1017.8 0.0
30/08:00am 7.2 1.4 4.2 81 1.3 N 24 33 13 18 1017.9 1018.1 0.0
30/07:30am 6.8 0.9 4.1 83 1.2 N 24 33 13 18 1017.9 1018.1 0.0
30/07:00am 6.7 0.9 4.2 84 1.1 N 24 33 13 18 1017.8 1018.0 0.0
30/06:30am 6.3 0.9 4.3 87 0.9 N 22 30 12 16 1018.0 1018.2 0.0
30/06:00am 6.0 0.9 4.2 88 0.8 N 20 28 11 15 1018.7 1018.9 0.0
30/05:30am 5.7 0.2 4.0 89 0.7 N 22 32 12 17 1019.1 1019.4 0.0
30/05:00am 5.0 0.4 3.8 92 0.5 N 17 22 9 12 1019.4 1019.7 0.0
30/04:30am 4.8 0.2 3.6 92 0.5 N 17 22 9 12 1019.7 1020.0 0.0
30/04:00am 5.3 0.2 4.0 91 0.6 N 20 30 11 16 1020.2 1020.5 0.0
30/03:30am 5.3 0.2 4.0 91 0.6 N 20 26 11 14 1020.5 1020.8 0.0
30/03:00am 5.2 0.7 4.0 92 0.5 N 17 22 9 12 1021.1 1021.4 0.0
30/02:30am 4.6 0.8 3.7 94 0.4 N 13 19 7 10 1021.5 1021.8 0.0
30/02:00am 5.4 0.9 4.4 93 0.4 N 17 24 9 13 1021.7 1022.0 0.0
30/01:30am 5.6 1.1 4.4 92 0.5 N 17 22 9 12 1022.6 1022.8 0.0
30/01:00am 5.4 1.3 4.4 93 0.4 N 15 20 8 11 1022.9 1023.1 0.0
30/12:30am 5.7 1.7 4.8 94 0.4 N 15 20 8 11 1023.4 1023.6 0.0
30/12:00am 5.0 1.0 4.7 98 0.1 NNE 15 17 8 9 1023.9 1024.1 0.0
 
Date/Time
EST
Temp
°C
App
Temp
°C
Dew
Point
Rel
Hum
%
Delta-T
°C
Wind Press
QNH
hPa
Press
MSL
hPa
Rain
since 9 am
mm
Dir
 
Spd
km/h
Gust
km/h
Spd
kts
Gust
kts
29/11:30pm 5.1 1.8 4.7 97 0.2 NNE 11 13 6 7 1024.5 1024.7 0.0
29/11:00pm 5.5 1.8 4.6 94 0.4 N 13 17 7 9 1024.5 1024.7 0.0
29/10:30pm 6.1 2.5 4.9 92 0.5 N 13 17 7 9 1025.1 1025.3 0.0
29/10:00pm 6.4 2.5 5.2 92 0.5 N 15 19 8 10 1025.2 1025.5 0.0
29/09:30pm 6.7 3.1 5.2 90 0.7 N 13 19 7 10 1025.3 1025.6 0.0
29/09:00pm 7.6 3.4 5.7 88 0.9 N 17 22 9 12 1025.5 1025.8 0.0
29/08:30pm 7.5 3.7 5.8 89 0.8 N 15 19 8 10 1025.5 1025.8 0.0
29/08:00pm 7.7 4.3 5.8 88 0.9 N 13 17 7 9 1026.0 1026.3 0.0
29/07:30pm 7.4 4.4 5.9 90 0.7 N 11 17 6 9 1026.2 1026.5 0.0
29/07:00pm 7.2 4.1 5.7 90 0.7 N 11 15 6 8 1026.0 1026.3 0.0
29/06:30pm 7.8 4.8 5.9 88 0.9 N 11 13 6 7 1026.0 1026.3 0.0
29/06:00pm 8.5 5.6 6.5 87 0.9 N 11 15 6 8 1025.8 1026.1 0.0
29/05:30pm 8.9 6.0 6.3 84 1.2 N 11 15 6 8 1025.9 1026.2 0.0
29/05:00pm 9.6 7.2 6.9 83 1.3 N 9 13 5 7 1026.0 1026.3 0.0
29/04:30pm 10.1 6.9 6.8 80 1.6 N 13 19 7 10 1026.6 1026.9 0.0
29/04:00pm 10.4 6.8 6.7 78 1.7 N 15 19 8 10 1026.7 1027.0 0.0
29/03:30pm 10.8 7.7 7.1 78 1.8 N 13 20 7 11 1026.8 1027.1 0.0
29/03:00pm 10.7 8.0 7.4 80 1.6 NNW 11 17 6 9 1027.2 1027.5 0.0
29/02:30pm 10.5 7.0 7.2 80 1.6 N 15 19 8 10 1027.3 1027.6 0.0
29/02:00pm 10.5 6.7 7.6 82 1.4 N 17 22 9 12 1027.8 1028.1 0.0
29/01:30pm 10.6 6.8 7.5 81 1.5 N 17 24 9 13 1028.6 1028.9 0.0
29/01:00pm 10.6 7.8 8.4 86 1.1 N 13 19 7 10 1029.3 1029.6 0.0
29/12:30pm 10.5 7.2 7.9 84 1.3 N 15 20 8 11 1030.0 1030.2 0.0
29/12:00pm 10.3 6.9 7.7 84 1.2 N 15 19 8 10 1030.6 1030.8 0.0
29/11:30am 10.2 6.5 7.8 85 1.2 N 17 24 9 13 1031.1 1031.3 0.0
29/11:00am 10.2 6.0 8.1 87 1.0 NNW 20 28 11 15 1031.4 1031.6 0.0
29/10:30am 9.6 6.5 8.7 94 0.4 N 15 20 8 11 1031.6 1031.9 0.0
29/10:00am 8.4 5.2 8.3 99 0.0 N 15 20 8 11 1031.4 1031.6 0.0
29/09:30am 7.3 5.0 7.3 100 0.0 N 9 13 5 7 1031.8 1032.1 0.0
29/09:00am 4.8 2.5 4.7 99 0.0 W 6 9 3 5 1031.9 1032.2 1.2
29/08:30am 2.8 0.1 2.7 99 0.0 W 6 6 3 3 1032.1 1032.4 1.2
29/08:00am 2.7 0.0 2.6 99 0.0 W 6 6 3 3 1032.0 1032.3 1.2
29/07:30am 1.9 -0.9 1.8 99 0.0 W 6 6 3 3 1031.8 1032.1 1.2
29/07:00am 2.9 0.2 2.8 99 0.0 W 6 7 3 4 1031.9 1032.2 1.2
29/06:30am 3.1 -0.1 3.0 99 0.0 W 9 11 5 6 1031.6 1031.9 1.2
29/06:00am 3.8 1.3 3.7 99 0.0 W 6 7 3 4 1031.6 1031.9 1.2
29/05:30am 3.6 0.9 3.5 99 0.0 W 7 7 4 4 1031.6 1031.9 1.2
29/05:00am 3.1 0.3 3.0 99 0.0 W 7 7 4 4 1031.7 1032.0 1.2
29/04:30am 3.5 0.9 3.4 99 0.0 W 6 7 3 4 1031.9 1032.2 1.2
29/04:00am 3.6 0.9 3.5 99 0.0 W 7 7 4 4 1031.8 1032.1 1.2
29/03:30am 2.8 -0.1 2.7 99 0.0 W 7 9 4 5 1031.9 1032.2 1.2
29/03:00am 2.7 -0.2 2.6 99 0.0 W 7 7 4 4 1032.1 1032.4 1.2
29/02:30am 3.1 0.3 3.0 99 0.0 W 7 9 4 5 1032.0 1032.3 1.2
29/02:00am 3.2 0.6 3.1 99 0.0 W 6 7 3 4 1032.4 1032.7 1.2
29/01:30am 3.4 0.8 3.3 99 0.0 W 6 7 3 4 1032.6 1032.9 1.2
29/01:00am 3.8 1.7 3.7 99 0.0 W 4 6 2 3 1033.0 1033.3 1.2
29/12:30am 4.2 1.8 4.1 99 0.0 W 6 6 3 3 1033.0 1033.3 1.2
29/12:00am 3.6 1.1 3.5 99 0.0 W 6 7 3 4 1033.0 1033.3 1.2
 
Date/Time
EST
Temp
°C
App
Temp
°C
Dew
Point
Rel
Hum
%
Delta-T
°C
Wind Press
QNH
hPa
Press
MSL
hPa
Rain
since 9 am
mm
Dir
 
Spd
km/h
Gust
km/h
Spd
kts
Gust
kts
28/11:30pm 4.1 1.5 4.0 99 0.0 W 7 9 4 5 1033.1 1033.4 1.2
28/11:00pm 5.3 3.1 5.2 99 0.0 W 6 6 3 3 1033.5 1033.8 1.2
28/10:30pm 5.2 3.3 5.1 99 0.0 W 4 6 2 3 1033.6 1033.9 1.2
28/10:00pm 5.6 3.4 5.5 99 0.0 W 6 7 3 4 1033.7 1034.0 1.2
28/09:30pm 6.8 4.9 6.7 99 0.0 W 6 7 3 4 1033.8 1034.1 1.2
28/09:00pm 7.2 5.4 7.1 99 0.0 W 6 7 3 4 1033.9 1034.2 1.2
28/08:30pm 7.4 5.6 7.3 99 0.0 WSW 6 6 3 3 1034.0 1034.3 1.2
28/08:00pm 7.9 6.3 7.8 99 0.0 WSW 6 6 3 3 1034.1 1034.4 1.2
28/07:30pm 7.9 6.3 7.8 99 0.0 W 6 6 3 3 1034.0 1034.3 1.2
28/07:00pm 7.7 7.1 7.6 99 0.0 CALM 0 0 0 0 1034.0 1034.3 1.2
28/06:30pm 8.4 7.6 8.3 99 0.0 SSW 2 4 1 2 1033.9 1034.2 1.2
28/06:00pm 8.8 7.2 8.7 99 0.0 SSW 7 9 4 5 1033.7 1034.0 1.2
28/05:30pm 9.0 6.7 8.9 99 0.0 SW 11 15 6 8 1033.7 1034.0 1.2
28/05:00pm 9.7 8.3 9.6 99 0.0 SW 7 9 4 5 1033.6 1033.9 1.2
28/04:30pm 9.9 8.2 9.8 99 0.1 SW 9 13 5 7 1033.4 1033.7 1.2
28/04:00pm 9.8 8.1 9.7 99 0.0 WSW 9 24 5 13 1033.4 1033.7 1.2
28/03:30pm 10.3 8.7 10.1 99 0.1 W 9 13 5 7 1033.3 1033.6 0.6
28/03:00pm 10.6 9.1 10.4 99 0.1 W 9 15 5 8 1033.2 1033.5 0.2
28/02:30pm 10.3 8.3 10.1 99 0.1 W 11 17 6 9 1033.4 1033.7 0.2
28/02:00pm 10.4 8.4 10.2 99 0.1 W 11 19 6 10 1033.6 1033.9 0.0
28/01:30pm 9.9 6.9 9.4 97 0.3 W 15 24 8 13 1033.8 1034.1 0.0
28/01:00pm 10.6 7.7 9.5 93 0.5 WNW 15 20 8 11 1034.2 1034.5 0.0
28/12:30pm 9.8 6.5 9.7 99 0.1 WNW 17 26 9 14 1034.5 1034.8 0.0
28/12:00pm 10.1 6.5 9.8 98 0.2 WNW 19 26 10 14 1034.9 1035.2 0.0
28/11:30am 9.4 6.0 9.3 99 0.0 WNW 17 26 9 14 1035.3 1035.6 0.0
28/11:00am 9.2 5.8 9.1 99 0.0 NW 17 20 9 11 1035.6 1035.9 0.0
28/10:30am 8.5 4.9 8.5 100 0.0 NW 17 24 9 13 1035.3 1035.6 0.0
28/10:00am 7.4 3.9 7.4 100 0.0 WNW 15 19 8 10 1035.3 1035.6 0.0
28/09:30am 6.8 3.2 6.8 100 0.0 NW 15 22 8 12 1035.4 1035.7 0.0
28/09:00am 6.1 2.7 6.1 100 0.0 NW 13 17 7 9 1035.2 1035.5 2.6
28/08:30am 5.6 2.1 5.5 99 0.0 NW 13 19 7 10 1035.0 1035.3 2.6
28/08:00am 5.5 1.6 5.4 99 0.0 NW 15 20 8 11 1034.9 1035.2 2.6
28/07:30am 5.2 2.0 5.1 99 0.0 NW 11 17 6 9 1034.6 1034.9 2.6
28/07:00am 4.9 1.3 4.8 99 0.0 NW 13 19 7 10 1034.2 1034.5 2.6
28/06:30am 4.8 1.1 4.7 99 0.0 NW 13 17 7 9 1033.8 1034.1 2.6
28/06:00am 5.0 1.4 4.9 99 0.0 NW 13 19 7 10 1033.4 1033.7 2.6
28/05:30am 5.0 1.4 4.9 99 0.0 NW 13 19 7 10 1033.2 1033.5 2.6
28/05:00am 4.9 2.0 4.8 99 0.0 NW 9 17 5 9 1032.9 1033.2 2.6
28/04:30am 3.4 0.6 3.3 99 0.0 NW 7 11 4 6 1032.8 1033.1 2.6
28/04:00am 4.3 0.9 4.2 99 0.0 NW 11 15 6 8 1032.8 1033.1 2.6
28/03:30am 4.6 1.3 4.5 99 0.0 NW 11 15 6 8 1033.0 1033.3 2.6
28/03:00am 5.2 2.0 5.1 99 0.0 NW 11 13 6 7 1033.0 1033.3 2.6
28/02:30am 5.5 2.0 5.4 99 0.0 WNW 13 17 7 9 1032.9 1033.2 2.6
28/02:00am 4.6 1.7 4.5 99 0.0 NW 9 13 5 7 1032.7 1033.0 2.6
28/01:30am 4.6 1.3 4.5 99 0.0 NW 11 13 6 7 1032.5 1032.8 2.6
28/01:00am 4.5 1.2 4.4 99 0.0 NW 11 13 6 7 1032.4 1032.7 2.6
28/12:30am 4.3 1.3 4.2 99 0.0 NW 9 13 5 7 1032.2 1032.5 2.6
28/12:00am 3.8 0.7 3.7 99 0.0 NW 9 13 5 7 1032.1 1032.4 2.6
 
Date/Time
EST
Temp
°C
App
Temp
°C
Dew
Point
Rel
Hum
%
Delta-T
°C
Wind Press
QNH
hPa
Press
MSL
hPa
Rain
since 9 am
mm
Dir
 
Spd
km/h
Gust
km/h
Spd
kts
Gust
kts
27/11:30pm 3.5 0.4 3.4 99 0.0 NW 9 11 5 6 1032.1 1032.4 2.6
27/11:00pm 3.3 0.5 3.2 99 0.0 NW 7 11 4 6 1032.2 1032.5 2.6
27/10:30pm 4.0 1.0 3.9 99 0.0 NW 9 13 5 7 1032.2 1032.5 2.6

Other Formats:

Comma delimited format used in spreadsheet applications
http://www.bom.gov.au/fwo/IDV60801/IDV60801.94840.axf

JavaScript Object Notation format (JSON) in row-major order
http://www.bom.gov.au/fwo/IDV60801/IDV60801.94840.json